sensor_id;sensor_type;location;lat;lon;timestamp;pressure;altitude;pressure_sealevel;temperature;humidity
32873;BME280;19224;52.462;16.898;2023-10-31T00:00:48;98544.64;;;15.27;100.00
32873;BME280;19224;52.462;16.898;2023-10-31T00:03:21;98546.23;;;15.29;100.00
32873;BME280;19224;52.462;16.898;2023-10-31T00:05:51;98537.70;;;15.34;100.00
32873;BME280;19224;52.462;16.898;2023-10-31T00:08:21;98543.13;;;15.34;100.00
32873;BME280;19224;52.462;16.898;2023-10-31T00:10:53;98540.68;;;15.31;100.00
32873;BME280;19224;52.462;16.898;2023-10-31T00:13:23;98532.64;;;15.35;100.00
32873;BME280;19224;52.462;16.898;2023-10-31T00:15:53;98521.72;;;15.40;100.00
32873;BME280;19224;52.462;16.898;2023-10-31T00:18:23;98519.00;;;15.40;100.00
32873;BME280;19224;52.462;16.898;2023-10-31T00:20:54;98513.00;;;15.37;100.00
32873;BME280;19224;52.462;16.898;2023-10-31T00:23:24;98511.06;;;15.43;100.00
32873;BME280;19224;52.462;16.898;2023-10-31T00:25:55;98501.23;;;15.51;100.00
32873;BME280;19224;52.462;16.898;2023-10-31T00:28:25;98490.72;;;15.33;100.00
32873;BME280;19224;52.462;16.898;2023-10-31T00:30:55;98482.16;;;15.38;100.00
32873;BME280;19224;52.462;16.898;2023-10-31T00:33:25;98470.73;;;15.34;100.00
32873;BME280;19224;52.462;16.898;2023-10-31T00:35:56;98463.45;;;15.44;100.00
32873;BME280;19224;52.462;16.898;2023-10-31T00:38:26;98462.02;;;15.50;100.00
32873;BME280;19224;52.462;16.898;2023-10-31T00:40:57;98458.30;;;15.51;100.00
32873;BME280;19224;52.462;16.898;2023-10-31T00:43:27;98462.89;;;15.50;100.00
32873;BME280;19224;52.462;16.898;2023-10-31T00:45:57;98462.59;;;15.53;100.00
32873;BME280;19224;52.462;16.898;2023-10-31T00:48:27;98457.02;;;15.45;100.00
32873;BME280;19224;52.462;16.898;2023-10-31T00:50:57;98445.09;;;15.52;100.00
32873;BME280;19224;52.462;16.898;2023-10-31T00:53:28;98444.39;;;15.50;100.00
32873;BME280;19224;52.462;16.898;2023-10-31T00:55:58;98439.31;;;15.51;100.00
32873;BME280;19224;52.462;16.898;2023-10-31T00:58:29;98432.58;;;15.55;100.00
32873;BME280;19224;52.462;16.898;2023-10-31T01:01:00;98428.33;;;15.52;100.00
32873;BME280;19224;52.462;16.898;2023-10-31T01:03:30;98418.40;;;15.57;100.00
32873;BME280;19224;52.462;16.898;2023-10-31T01:06:00;98407.05;;;15.48;100.00
32873;BME280;19224;52.462;16.898;2023-10-31T01:08:31;98402.73;;;15.55;100.00
32873;BME280;19224;52.462;16.898;2023-10-31T01:11:02;98394.41;;;15.43;100.00
32873;BME280;19224;52.462;16.898;2023-10-31T01:13:32;98400.00;;;15.41;100.00
32873;BME280;19224;52.462;16.898;2023-10-31T01:16:04;98397.77;;;15.41;100.00
32873;BME280;19224;52.462;16.898;2023-10-31T01:18:34;98396.91;;;15.50;100.00
32873;BME280;19224;52.462;16.898;2023-10-31T01:21:04;98389.77;;;15.49;100.00
32873;BME280;19224;52.462;16.898;2023-10-31T01:23:35;98385.34;;;15.38;100.00
32873;BME280;19224;52.462;16.898;2023-10-31T01:26:05;98373.27;;;15.46;100.00
32873;BME280;19224;52.462;16.898;2023-10-31T01:28:35;98370.73;;;15.45;100.00
32873;BME280;19224;52.462;16.898;2023-10-31T01:31:05;98367.19;;;15.48;100.00
32873;BME280;19224;52.462;16.898;2023-10-31T01:33:36;98367.71;;;15.48;100.00
32873;BME280;19224;52.462;16.898;2023-10-31T01:36:07;98363.34;;;15.51;100.00
32873;BME280;19224;52.462;16.898;2023-10-31T01:38:39;98362.64;;;15.49;100.00
32873;BME280;19224;52.462;16.898;2023-10-31T01:41:09;98354.20;;;15.52;100.00
32873;BME280;19224;52.462;16.898;2023-10-31T01:43:40;98339.80;;;15.51;100.00
32873;BME280;19224;52.462;16.898;2023-10-31T01:46:10;98347.02;;;15.47;100.00
32873;BME280;19224;52.462;16.898;2023-10-31T01:48:41;98341.23;;;15.46;100.00
32873;BME280;19224;52.462;16.898;2023-10-31T01:51:12;98334.06;;;15.54;100.00
32873;BME280;19224;52.462;16.898;2023-10-31T01:53:43;98332.57;;;15.56;100.00
32873;BME280;19224;52.462;16.898;2023-10-31T01:56:14;98324.13;;;15.59;100.00
32873;BME280;19224;52.462;16.898;2023-10-31T01:58:45;98307.89;;;15.63;100.00
32873;BME280;19224;52.462;16.898;2023-10-31T02:01:16;98304.52;;;15.65;100.00
32873;BME280;19224;52.462;16.898;2023-10-31T02:03:49;98300.62;;;15.63;100.00
32873;BME280;19224;52.462;16.898;2023-10-31T02:06:19;98293.48;;;15.62;100.00
32873;BME280;19224;52.462;16.898;2023-10-31T02:08:51;98288.89;;;15.63;100.00
32873;BME280;19224;52.462;16.898;2023-10-31T02:11:21;98282.28;;;15.61;100.00
32873;BME280;19224;52.462;16.898;2023-10-31T02:13:52;98281.45;;;15.65;100.00
32873;BME280;19224;52.462;16.898;2023-10-31T02:16:22;98275.33;;;15.63;100.00
32873;BME280;19224;52.462;16.898;2023-10-31T02:18:52;98271.26;;;15.63;100.00
32873;BME280;19224;52.462;16.898;2023-10-31T02:21:24;98261.52;;;15.70;100.00
32873;BME280;19224;52.462;16.898;2023-10-31T02:24:01;98244.72;;;15.70;100.00
32873;BME280;19224;52.462;16.898;2023-10-31T02:26:34;98247.30;;;15.72;100.00
32873;BME280;19224;52.462;16.898;2023-10-31T02:29:05;98235.33;;;15.78;100.00
32873;BME280;19224;52.462;16.898;2023-10-31T02:31:36;98231.70;;;15.74;100.00
32873;BME280;19224;52.462;16.898;2023-10-31T02:34:06;98223.12;;;15.78;100.00
32873;BME280;19224;52.462;16.898;2023-10-31T02:36:36;98229.41;;;15.79;100.00
32873;BME280;19224;52.462;16.898;2023-10-31T02:39:07;98220.92;;;15.78;100.00
32873;BME280;19224;52.462;16.898;2023-10-31T02:41:37;98219.60;;;15.82;100.00
32873;BME280;19224;52.462;16.898;2023-10-31T02:44:08;98218.55;;;15.79;100.00
32873;BME280;19224;52.462;16.898;2023-10-31T02:46:39;98217.89;;;15.81;100.00
32873;BME280;19224;52.462;16.898;2023-10-31T02:49:09;98214.14;;;15.78;100.00
32873;BME280;19224;52.462;16.898;2023-10-31T02:51:39;98211.15;;;15.85;100.00
32873;BME280;19224;52.462;16.898;2023-10-31T02:54:10;98209.34;;;15.76;100.00
32873;BME280;19224;52.462;16.898;2023-10-31T02:56:41;98200.91;;;15.79;100.00
32873;BME280;19224;52.462;16.898;2023-10-31T02:59:11;98198.79;;;15.73;100.00
32873;BME280;19224;52.462;16.898;2023-10-31T03:01:41;98194.83;;;15.81;100.00
32873;BME280;19224;52.462;16.898;2023-10-31T03:04:12;98193.36;;;15.86;100.00
32873;BME280;19224;52.462;16.898;2023-10-31T03:06:43;98192.24;;;15.93;100.00
32873;BME280;19224;52.462;16.898;2023-10-31T03:09:15;98180.41;;;15.98;100.00
32873;BME280;19224;52.462;16.898;2023-10-31T03:11:45;98182.11;;;15.99;100.00
32873;BME280;19224;52.462;16.898;2023-10-31T03:14:15;98171.25;;;15.99;100.00
32873;BME280;19224;52.462;16.898;2023-10-31T03:16:45;98171.02;;;15.92;100.00
32873;BME280;19224;52.462;16.898;2023-10-31T03:19:16;98175.26;;;15.91;100.00
32873;BME280;19224;52.462;16.898;2023-10-31T03:21:46;98166.13;;;15.96;100.00
32873;BME280;19224;52.462;16.898;2023-10-31T03:24:16;98161.12;;;16.01;100.00
32873;BME280;19224;52.462;16.898;2023-10-31T03:26:47;98161.60;;;16.00;100.00
32873;BME280;19224;52.462;16.898;2023-10-31T03:29:17;98159.23;;;16.01;100.00
32873;BME280;19224;52.462;16.898;2023-10-31T03:31:48;98162.16;;;16.04;100.00
32873;BME280;19224;52.462;16.898;2023-10-31T03:34:18;98165.02;;;16.02;100.00
32873;BME280;19224;52.462;16.898;2023-10-31T03:36:48;98168.42;;;16.04;100.00
32873;BME280;19224;52.462;16.898;2023-10-31T03:39:19;98156.06;;;16.06;100.00
32873;BME280;19224;52.462;16.898;2023-10-31T03:41:49;98162.88;;;16.10;100.00
32873;BME280;19224;52.462;16.898;2023-10-31T03:44:19;98155.05;;;16.07;100.00
32873;BME280;19224;52.462;16.898;2023-10-31T03:46:49;98145.78;;;16.13;100.00
32873;BME280;19224;52.462;16.898;2023-10-31T03:49:19;98148.67;;;16.12;100.00
32873;BME280;19224;52.462;16.898;2023-10-31T03:51:50;98147.31;;;16.12;100.00
32873;BME280;19224;52.462;16.898;2023-10-31T03:54:20;98141.65;;;16.05;100.00
32873;BME280;19224;52.462;16.898;2023-10-31T03:56:50;98139.51;;;16.13;100.00
32873;BME280;19224;52.462;16.898;2023-10-31T03:59:20;98142.89;;;16.11;100.00
32873;BME280;19224;52.462;16.898;2023-10-31T04:01:51;98137.83;;;16.16;100.00
32873;BME280;19224;52.462;16.898;2023-10-31T04:04:21;98130.70;;;16.15;100.00
32873;BME280;19224;52.462;16.898;2023-10-31T04:06:51;98138.20;;;16.21;100.00
32873;BME280;19224;52.462;16.898;2023-10-31T04:09:21;98128.81;;;16.15;100.00
32873;BME280;19224;52.462;16.898;2023-10-31T04:11:52;98141.23;;;16.18;100.00
32873;BME280;19224;52.462;16.898;2023-10-31T04:14:23;98140.75;;;16.18;100.00
32873;BME280;19224;52.462;16.898;2023-10-31T04:16:53;98132.08;;;16.19;100.00
32873;BME280;19224;52.462;16.898;2023-10-31T04:19:23;98132.40;;;16.16;100.00
32873;BME280;19224;52.462;16.898;2023-10-31T04:21:54;98136.91;;;16.25;100.00
32873;BME280;19224;52.462;16.898;2023-10-31T04:24:25;98130.40;;;16.22;100.00
32873;BME280;19224;52.462;16.898;2023-10-31T04:26:55;98129.24;;;16.24;100.00
32873;BME280;19224;52.462;16.898;2023-10-31T04:29:25;98128.43;;;16.28;100.00
32873;BME280;19224;52.462;16.898;2023-10-31T04:31:56;98126.87;;;16.25;100.00
32873;BME280;19224;52.462;16.898;2023-10-31T04:34:27;98120.48;;;16.30;100.00
32873;BME280;19224;52.462;16.898;2023-10-31T04:36:57;98127.09;;;16.32;100.00
32873;BME280;19224;52.462;16.898;2023-10-31T04:39:27;98122.67;;;16.31;100.00
32873;BME280;19224;52.462;16.898;2023-10-31T04:41:58;98121.84;;;16.30;100.00
32873;BME280;19224;52.462;16.898;2023-10-31T04:44:28;98111.31;;;16.31;100.00
32873;BME280;19224;52.462;16.898;2023-10-31T04:46:58;98103.66;;;16.31;100.00
32873;BME280;19224;52.462;16.898;2023-10-31T04:49:28;98099.93;;;16.32;100.00
32873;BME280;19224;52.462;16.898;2023-10-31T04:51:58;98102.50;;;16.33;100.00
32873;BME280;19224;52.462;16.898;2023-10-31T04:54:29;98102.28;;;16.27;100.00
32873;BME280;19224;52.462;16.898;2023-10-31T04:56:59;98098.20;;;16.27;100.00
32873;BME280;19224;52.462;16.898;2023-10-31T04:59:29;98097.86;;;16.26;100.00
32873;BME280;19224;52.462;16.898;2023-10-31T05:02:00;98096.98;;;16.25;100.00
32873;BME280;19224;52.462;16.898;2023-10-31T05:04:30;98094.13;;;16.27;100.00
32873;BME280;19224;52.462;16.898;2023-10-31T05:07:00;98098.55;;;16.28;100.00
32873;BME280;19224;52.462;16.898;2023-10-31T05:09:31;98093.12;;;16.28;100.00
32873;BME280;19224;52.462;16.898;2023-10-31T05:12:01;98092.45;;;16.30;100.00
32873;BME280;19224;52.462;16.898;2023-10-31T05:14:32;98094.15;;;16.31;100.00
32873;BME280;19224;52.462;16.898;2023-10-31T05:17:03;98089.73;;;16.30;100.00
32873;BME280;19224;52.462;16.898;2023-10-31T05:19:33;98085.16;;;16.30;100.00
32873;BME280;19224;52.462;16.898;2023-10-31T05:22:03;98090.94;;;16.31;100.00
32873;BME280;19224;52.462;16.898;2023-10-31T05:24:34;98096.05;;;16.34;100.00
32873;BME280;19224;52.462;16.898;2023-10-31T05:27:05;98087.91;;;16.34;100.00
32873;BME280;19224;52.462;16.898;2023-10-31T05:29:38;98081.98;;;16.35;100.00
32873;BME280;19224;52.462;16.898;2023-10-31T05:32:10;98087.79;;;16.36;100.00
32873;BME280;19224;52.462;16.898;2023-10-31T05:34:41;98086.59;;;16.38;100.00
32873;BME280;19224;52.462;16.898;2023-10-31T05:37:11;98077.47;;;16.39;100.00
32873;BME280;19224;52.462;16.898;2023-10-31T05:39:44;98077.38;;;16.35;100.00
32873;BME280;19224;52.462;16.898;2023-10-31T05:42:14;98073.88;;;16.39;100.00
32873;BME280;19224;52.462;16.898;2023-10-31T05:44:45;98072.17;;;16.38;100.00
32873;BME280;19224;52.462;16.898;2023-10-31T05:47:16;98076.27;;;16.42;100.00
32873;BME280;19224;52.462;16.898;2023-10-31T05:49:47;98081.03;;;16.44;100.00
32873;BME280;19224;52.462;16.898;2023-10-31T05:52:18;98073.41;;;16.43;100.00
32873;BME280;19224;52.462;16.898;2023-10-31T05:54:48;98072.54;;;16.43;100.00
32873;BME280;19224;52.462;16.898;2023-10-31T05:57:18;98074.77;;;16.43;100.00
32873;BME280;19224;52.462;16.898;2023-10-31T05:59:48;98068.10;;;16.38;100.00
32873;BME280;19224;52.462;16.898;2023-10-31T06:02:19;98075.11;;;16.44;100.00
32873;BME280;19224;52.462;16.898;2023-10-31T06:04:49;98071.18;;;16.43;100.00
32873;BME280;19224;52.462;16.898;2023-10-31T06:07:19;98073.75;;;16.44;100.00
32873;BME280;19224;52.462;16.898;2023-10-31T06:09:49;98077.81;;;16.40;100.00
32873;BME280;19224;52.462;16.898;2023-10-31T06:12:20;98078.10;;;16.37;100.00
32873;BME280;19224;52.462;16.898;2023-10-31T06:14:50;98084.06;;;16.37;100.00
32873;BME280;19224;52.462;16.898;2023-10-31T06:17:21;98081.88;;;16.40;100.00
32873;BME280;19224;52.462;16.898;2023-10-31T06:19:51;98089.16;;;16.40;100.00
32873;BME280;19224;52.462;16.898;2023-10-31T06:22:21;98089.16;;;16.40;100.00
32873;BME280;19224;52.462;16.898;2023-10-31T06:24:52;98083.27;;;16.27;100.00
32873;BME280;19224;52.462;16.898;2023-10-31T06:27:22;98093.12;;;16.28;100.00
32873;BME280;19224;52.462;16.898;2023-10-31T06:29:52;98083.62;;;16.32;100.00
32873;BME280;19224;52.462;16.898;2023-10-31T06:32:24;98083.34;;;16.35;100.00
32873;BME280;19224;52.462;16.898;2023-10-31T06:34:54;98079.11;;;16.36;100.00
32873;BME280;19224;52.462;16.898;2023-10-31T06:37:24;98085.29;;;16.25;100.00
32873;BME280;19224;52.462;16.898;2023-10-31T06:39:55;98079.52;;;16.24;100.00
32873;BME280;19224;52.462;16.898;2023-10-31T06:42:25;98085.23;;;16.21;100.00
32873;BME280;19224;52.462;16.898;2023-10-31T06:44:55;98080.87;;;16.24;100.00
32873;BME280;19224;52.462;16.898;2023-10-31T06:47:26;98078.69;;;16.10;100.00
32873;BME280;19224;52.462;16.898;2023-10-31T06:49:56;98083.31;;;16.13;100.00
32873;BME280;19224;52.462;16.898;2023-10-31T06:52:26;98080.11;;;16.14;100.00
32873;BME280;19224;52.462;16.898;2023-10-31T06:54:56;98083.06;;;16.03;100.00
32873;BME280;19224;52.462;16.898;2023-10-31T06:57:27;98083.48;;;16.12;100.00
32873;BME280;19224;52.462;16.898;2023-10-31T06:59:57;98078.06;;;16.12;100.00
32873;BME280;19224;52.462;16.898;2023-10-31T07:02:27;98076.52;;;16.13;100.00
32873;BME280;19224;52.462;16.898;2023-10-31T07:04:57;98076.38;;;16.15;100.00
32873;BME280;19224;52.462;16.898;2023-10-31T07:07:27;98082.50;;;16.17;100.00
32873;BME280;19224;52.462;16.898;2023-10-31T07:09:58;98079.34;;;16.04;100.00
32873;BME280;19224;52.462;16.898;2023-10-31T07:12:28;98080.00;;;16.02;100.00
32873;BME280;19224;52.462;16.898;2023-10-31T07:14:58;98089.19;;;16.05;100.00
32873;BME280;19224;52.462;16.898;2023-10-31T07:17:29;98084.12;;;16.10;100.00
32873;BME280;19224;52.462;16.898;2023-10-31T07:20:00;98091.21;;;16.03;100.00
32873;BME280;19224;52.462;16.898;2023-10-31T07:22:31;98085.11;;;16.05;100.00
32873;BME280;19224;52.462;16.898;2023-10-31T07:25:01;98085.60;;;16.04;100.00
32873;BME280;19224;52.462;16.898;2023-10-31T07:27:32;98094.84;;;16.11;100.00
32873;BME280;19224;52.462;16.898;2023-10-31T07:30:05;98106.72;;;16.10;100.00
32873;BME280;19224;52.462;16.898;2023-10-31T07:32:35;98104.49;;;16.10;100.00
32873;BME280;19224;52.462;16.898;2023-10-31T07:35:07;98100.89;;;15.88;100.00
32873;BME280;19224;52.462;16.898;2023-10-31T07:37:37;98118.91;;;15.89;100.00
32873;BME280;19224;52.462;16.898;2023-10-31T07:40:08;98118.39;;;15.89;100.00
32873;BME280;19224;52.462;16.898;2023-10-31T07:42:38;98125.55;;;15.77;100.00
32873;BME280;19224;52.462;16.898;2023-10-31T07:45:10;98120.49;;;15.78;100.00
32873;BME280;19224;52.462;16.898;2023-10-31T07:47:40;98124.56;;;15.78;100.00
32873;BME280;19224;52.462;16.898;2023-10-31T07:50:10;98136.02;;;15.72;100.00
32873;BME280;19224;52.462;16.898;2023-10-31T07:52:42;98131.61;;;15.71;100.00
32873;BME280;19224;52.462;16.898;2023-10-31T07:55:14;98141.70;;;15.65;100.00
32873;BME280;19224;52.462;16.898;2023-10-31T07:57:44;98143.81;;;15.71;100.00
32873;BME280;19224;52.462;16.898;2023-10-31T08:00:16;98144.76;;;15.66;100.00
32873;BME280;19224;52.462;16.898;2023-10-31T08:02:46;98159.75;;;15.70;100.00
32873;BME280;19224;52.462;16.898;2023-10-31T08:05:16;98148.41;;;15.57;100.00
32873;BME280;19224;52.462;16.898;2023-10-31T08:07:47;98160.31;;;15.60;100.00
32873;BME280;19224;52.462;16.898;2023-10-31T08:10:17;98157.94;;;15.61;100.00
32873;BME280;19224;52.462;16.898;2023-10-31T08:12:47;98152.52;;;15.61;100.00
32873;BME280;19224;52.462;16.898;2023-10-31T08:15:17;98152.38;;;15.62;100.00
32873;BME280;19224;52.462;16.898;2023-10-31T08:17:48;98157.25;;;15.59;100.00
32873;BME280;19224;52.462;16.898;2023-10-31T08:20:19;98149.31;;;15.48;100.00
32873;BME280;19224;52.462;16.898;2023-10-31T08:22:49;98157.56;;;15.56;100.00
32873;BME280;19224;52.462;16.898;2023-10-31T08:25:19;98160.27;;;15.56;100.00
32873;BME280;19224;52.462;16.898;2023-10-31T08:27:51;98165.28;;;15.51;100.00
32873;BME280;19224;52.462;16.898;2023-10-31T08:30:21;98173.77;;;15.52;100.00
32873;BME280;19224;52.462;16.898;2023-10-31T08:32:52;98179.16;;;15.48;100.00
32873;BME280;19224;52.462;16.898;2023-10-31T08:35:22;98186.29;;;15.49;100.00
32873;BME280;19224;52.462;16.898;2023-10-31T08:37:52;98185.28;;;15.50;100.00
32873;BME280;19224;52.462;16.898;2023-10-31T08:40:23;98182.61;;;15.54;100.00
32873;BME280;19224;52.462;16.898;2023-10-31T08:42:53;98186.58;;;15.59;100.00
32873;BME280;19224;52.462;16.898;2023-10-31T08:45:24;98188.23;;;15.43;100.00
32873;BME280;19224;52.462;16.898;2023-10-31T08:47:54;98181.09;;;15.42;100.00
32873;BME280;19224;52.462;16.898;2023-10-31T08:50:25;98178.11;;;15.45;100.00
32873;BME280;19224;52.462;16.898;2023-10-31T08:52:55;98187.48;;;15.37;100.00
32873;BME280;19224;52.462;16.898;2023-10-31T08:55:25;98195.19;;;15.41;100.00
32873;BME280;19224;52.462;16.898;2023-10-31T08:57:56;98184.33;;;15.41;100.00
32873;BME280;19224;52.462;16.898;2023-10-31T09:00:26;98191.25;;;15.40;100.00
32873;BME280;19224;52.462;16.898;2023-10-31T09:02:57;98194.17;;;15.42;100.00
32873;BME280;19224;52.462;16.898;2023-10-31T09:05:27;98201.30;;;15.43;100.00
32873;BME280;19224;52.462;16.898;2023-10-31T09:07:58;98206.03;;;15.41;100.00
32873;BME280;19224;52.462;16.898;2023-10-31T09:10:28;98208.05;;;15.39;100.00
32873;BME280;19224;52.462;16.898;2023-10-31T09:12:58;98228.48;;;15.34;100.00
32873;BME280;19224;52.462;16.898;2023-10-31T09:15:28;98229.92;;;15.42;100.00
32873;BME280;19224;52.462;16.898;2023-10-31T09:17:59;98236.05;;;15.44;100.00
32873;BME280;19224;52.462;16.898;2023-10-31T09:20:29;98237.84;;;15.49;100.00
32873;BME280;19224;52.462;16.898;2023-10-31T09:22:59;98239.23;;;15.53;100.00
32873;BME280;19224;52.462;16.898;2023-10-31T09:25:29;98239.42;;;15.42;100.00
32873;BME280;19224;52.462;16.898;2023-10-31T09:28:00;98236.83;;;15.50;100.00
32873;BME280;19224;52.462;16.898;2023-10-31T09:30:30;98238.49;;;15.47;100.00
32873;BME280;19224;52.462;16.898;2023-10-31T09:33:01;98248.03;;;15.51;100.00
32873;BME280;19224;52.462;16.898;2023-10-31T09:35:31;98240.20;;;15.48;100.00
32873;BME280;19224;52.462;16.898;2023-10-31T09:38:01;98248.69;;;15.49;100.00
32873;BME280;19224;52.462;16.898;2023-10-31T09:40:33;98264.05;;;15.44;100.00
32873;BME280;19224;52.462;16.898;2023-10-31T09:43:03;98264.41;;;15.45;100.00
32873;BME280;19224;52.462;16.898;2023-10-31T09:45:34;98264.19;;;15.43;100.00
32873;BME280;19224;52.462;16.898;2023-10-31T09:48:04;98269.27;;;15.42;100.00
32873;BME280;19224;52.462;16.898;2023-10-31T09:50:35;98286.63;;;15.45;100.00
32873;BME280;19224;52.462;16.898;2023-10-31T09:53:08;98290.61;;;15.41;100.00
32873;BME280;19224;52.462;16.898;2023-10-31T09:55:40;98304.35;;;15.53;100.00
32873;BME280;19224;52.462;16.898;2023-10-31T09:58:11;98310.39;;;15.60;100.00
32873;BME280;19224;52.462;16.898;2023-10-31T10:00:42;98306.80;;;15.56;100.00
32873;BME280;19224;52.462;16.898;2023-10-31T10:03:12;98307.33;;;15.46;100.00
32873;BME280;19224;52.462;16.898;2023-10-31T10:05:46;98315.86;;;15.51;100.00
32873;BME280;19224;52.462;16.898;2023-10-31T10:08:17;98311.04;;;15.45;100.00
32873;BME280;19224;52.462;16.898;2023-10-31T10:10:51;98327.67;;;15.46;100.00
32873;BME280;19224;52.462;16.898;2023-10-31T10:13:22;98330.13;;;15.53;100.00
32873;BME280;19224;52.462;16.898;2023-10-31T10:15:53;98319.88;;;15.47;100.00
32873;BME280;19224;52.462;16.898;2023-10-31T10:18:30;98334.38;;;15.42;100.00
32873;BME280;19224;52.462;16.898;2023-10-31T10:21:05;98341.50;;;15.43;100.00
32873;BME280;19224;52.462;16.898;2023-10-31T10:23:36;98343.86;;;15.42;100.00
32873;BME280;19224;52.462;16.898;2023-10-31T10:26:06;98339.01;;;15.45;100.00
32873;BME280;19224;52.462;16.898;2023-10-31T10:28:37;98333.58;;;15.45;100.00
32873;BME280;19224;52.462;16.898;2023-10-31T10:31:07;98329.86;;;15.46;100.00
32873;BME280;19224;52.462;16.898;2023-10-31T10:33:40;98334.98;;;15.49;100.00
32873;BME280;19224;52.462;16.898;2023-10-31T10:36:11;98329.86;;;15.56;100.00
32873;BME280;19224;52.462;16.898;2023-10-31T10:38:42;98328.95;;;15.65;100.00
32873;BME280;19224;52.462;16.898;2023-10-31T10:41:15;98333.76;;;15.57;100.00
32873;BME280;19224;52.462;16.898;2023-10-31T10:43:48;98340.10;;;15.62;100.00
32873;BME280;19224;52.462;16.898;2023-10-31T10:46:21;98348.03;;;15.59;100.00
32873;BME280;19224;52.462;16.898;2023-10-31T10:48:55;98344.27;;;15.56;100.00
32873;BME280;19224;52.462;16.898;2023-10-31T10:57:24;98368.63;;;15.43;100.00
32873;BME280;19224;52.462;16.898;2023-10-31T10:59:53;98371.42;;;15.37;100.00
32873;BME280;19224;52.462;16.898;2023-10-31T11:02:26;98355.15;;;15.37;100.00
32873;BME280;19224;52.462;16.898;2023-10-31T11:04:57;98376.78;;;15.24;100.00
32873;BME280;19224;52.462;16.898;2023-10-31T11:07:29;98384.05;;;15.23;100.00
32873;BME280;19224;52.462;16.898;2023-10-31T11:10:01;98386.42;;;15.32;100.00
32873;BME280;19224;52.462;16.898;2023-10-31T11:12:33;98386.55;;;15.21;100.00
32873;BME280;19224;52.462;16.898;2023-10-31T11:15:05;98411.09;;;15.29;100.00
32873;BME280;19224;52.462;16.898;2023-10-31T11:17:41;98408.33;;;15.25;100.00
32873;BME280;19224;52.462;16.898;2023-10-31T11:20:14;98411.61;;;15.09;100.00
32873;BME280;19224;52.462;16.898;2023-10-31T11:22:47;98420.03;;;15.16;100.00
32873;BME280;19224;52.462;16.898;2023-10-31T11:25:20;98413.75;;;15.25;100.00
32873;BME280;19224;52.462;16.898;2023-10-31T11:27:54;98411.09;;;15.29;100.00
32873;BME280;19224;52.462;16.898;2023-10-31T11:30:33;98410.73;;;15.09;100.00
32873;BME280;19224;52.462;16.898;2023-10-31T11:33:03;98415.25;;;15.14;100.00
32873;BME280;19224;52.462;16.898;2023-10-31T11:35:35;98423.39;;;15.14;100.00
32873;BME280;19224;52.462;16.898;2023-10-31T11:38:09;98417.17;;;14.98;100.00
32873;BME280;19224;52.462;16.898;2023-10-31T11:40:59;98427.66;;;15.07;100.00
32873;BME280;19224;52.462;16.898;2023-10-31T11:46:24;98425.66;;;15.09;100.00
32873;BME280;19224;52.462;16.898;2023-10-31T11:48:56;98438.63;;;14.96;100.00
32873;BME280;19224;52.462;16.898;2023-10-31T11:51:27;98431.92;;;14.81;100.00
32873;BME280;19224;52.462;16.898;2023-10-31T11:53:58;98436.56;;;14.84;100.00
32873;BME280;19224;52.462;16.898;2023-10-31T11:56:29;98450.19;;;14.88;100.00
32873;BME280;19224;52.462;16.898;2023-10-31T11:59:04;98431.40;;;14.81;100.00
32873;BME280;19224;52.462;16.898;2023-10-31T12:01:46;98443.11;;;14.82;100.00
32873;BME280;19224;52.462;16.898;2023-10-31T12:04:23;98464.03;;;14.95;100.00
32873;BME280;19224;52.462;16.898;2023-10-31T12:07:00;98469.84;;;15.05;100.00
32873;BME280;19224;52.462;16.898;2023-10-31T12:09:30;98470.39;;;15.09;100.00
32873;BME280;19224;52.462;16.898;2023-10-31T12:12:00;98483.95;;;15.09;100.00
32873;BME280;19224;52.462;16.898;2023-10-31T12:14:30;98477.71;;;14.93;100.00
32873;BME280;19224;52.462;16.898;2023-10-31T12:17:05;98454.12;;;14.90;100.00
32873;BME280;19224;52.462;16.898;2023-10-31T12:19:37;98488.42;;;14.85;100.00
32873;BME280;19224;52.462;16.898;2023-10-31T12:22:15;98516.72;;;14.87;100.00
32873;BME280;19224;52.462;16.898;2023-10-31T12:24:45;98517.30;;;14.90;100.00
32873;BME280;19224;52.462;16.898;2023-10-31T12:27:15;98473.77;;;14.82;100.00
32873;BME280;19224;52.462;16.898;2023-10-31T12:29:45;98485.36;;;14.69;100.00
32873;BME280;19224;52.462;16.898;2023-10-31T12:32:16;98464.27;;;14.73;100.00
32873;BME280;19224;52.462;16.898;2023-10-31T12:34:47;98479.53;;;14.74;100.00
32873;BME280;19224;52.462;16.898;2023-10-31T12:37:19;98484.77;;;14.66;100.00
32873;BME280;19224;52.462;16.898;2023-10-31T12:39:49;98496.66;;;14.59;100.00
32873;BME280;19224;52.462;16.898;2023-10-31T12:42:20;98494.20;;;14.71;100.00
32873;BME280;19224;52.462;16.898;2023-10-31T12:44:51;98501.14;;;14.70;100.00
32873;BME280;19224;52.462;16.898;2023-10-31T12:47:24;98502.72;;;14.72;100.00
32873;BME280;19224;52.462;16.898;2023-10-31T12:50:13;98507.70;;;14.77;100.00
32873;BME280;19224;52.462;16.898;2023-10-31T12:52:53;98503.92;;;14.74;100.00
32873;BME280;19224;52.462;16.898;2023-10-31T12:55:31;98521.05;;;14.74;100.00
32873;BME280;19224;52.462;16.898;2023-10-31T12:57:59;98525.84;;;14.86;100.00
32873;BME280;19224;52.462;16.898;2023-10-31T13:00:34;98531.27;;;15.01;100.00
32873;BME280;19224;52.462;16.898;2023-10-31T13:03:08;98525.09;;;14.99;100.00
32873;BME280;19224;52.462;16.898;2023-10-31T13:05:39;98529.91;;;15.10;100.00
32873;BME280;19224;52.462;16.898;2023-10-31T13:08:16;98535.22;;;15.21;100.00